createdAt,value
2018-07-07T00:00:36.538Z,18.78
2018-07-07T00:01:36.527Z,18.78
2018-07-07T00:02:36.517Z,18.72
2018-07-07T00:03:36.512Z,18.68
2018-07-07T00:04:36.500Z,18.65
2018-07-07T00:05:36.489Z,18.69
2018-07-07T00:06:36.480Z,18.56
2018-07-07T00:07:36.471Z,18.68
2018-07-07T00:08:36.463Z,18.62
2018-07-07T00:09:36.451Z,18.71
2018-07-07T00:10:36.445Z,18.62
2018-07-07T00:11:36.432Z,18.56
2018-07-07T00:12:36.423Z,18.65
2018-07-07T00:13:36.412Z,18.62
2018-07-07T00:14:36.404Z,18.66
2018-07-07T00:15:36.396Z,18.59
2018-07-07T00:16:36.385Z,18.46
2018-07-07T00:17:36.375Z,18.54
2018-07-07T00:18:36.366Z,18.47
2018-07-07T00:19:36.356Z,18.47
2018-07-07T00:20:36.349Z,18.44
2018-07-07T00:21:36.336Z,18.41
2018-07-07T00:22:36.328Z,18.38
2018-07-07T00:23:36.318Z,18.39
2018-07-07T00:24:36.309Z,18.29
2018-07-07T00:25:36.298Z,18.25
2018-07-07T00:26:36.289Z,18.28
2018-07-07T00:27:36.281Z,18.23
2018-07-07T00:28:36.272Z,18.20
2018-07-07T00:29:36.261Z,18.20
2018-07-07T00:30:36.249Z,18.23
2018-07-07T00:31:36.240Z,18.23
2018-07-07T00:32:36.231Z,18.20
2018-07-07T00:33:36.220Z,18.10
2018-07-07T00:34:36.214Z,18.19
2018-07-07T00:35:36.203Z,18.20
2018-07-07T00:36:36.191Z,18.01
2018-07-07T00:37:36.180Z,17.99
2018-07-07T00:38:36.172Z,18.05
2018-07-07T00:39:36.163Z,18.02
2018-07-07T00:40:36.152Z,18.01
2018-07-07T00:41:36.142Z,17.84
2018-07-07T00:42:36.132Z,17.81
2018-07-07T00:43:36.122Z,17.74
2018-07-07T00:44:36.112Z,17.79
2018-07-07T00:45:36.101Z,17.73
2018-07-07T00:46:36.092Z,17.76
2018-07-07T00:47:36.082Z,17.74
2018-07-07T00:48:36.072Z,17.73
2018-07-07T00:49:36.061Z,17.70
2018-07-07T00:50:36.054Z,17.77
2018-07-07T00:51:36.042Z,17.86
2018-07-07T00:52:36.037Z,17.81
2018-07-07T00:53:36.021Z,17.87
2018-07-07T00:54:36.015Z,17.83
2018-07-07T00:55:36.002Z,17.84
2018-07-07T00:56:35.991Z,17.91
2018-07-07T00:57:35.982Z,17.84
2018-07-07T00:58:35.970Z,17.71
2018-07-07T00:59:35.961Z,17.70
2018-07-07T01:00:35.951Z,17.66
2018-07-07T01:01:35.940Z,17.71
2018-07-07T01:02:35.930Z,17.86
2018-07-07T01:03:35.920Z,17.74
2018-07-07T01:04:35.910Z,17.79
2018-07-07T01:05:35.900Z,17.81
2018-07-07T01:06:35.890Z,17.63
2018-07-07T01:07:35.880Z,17.65
2018-07-07T01:08:35.870Z,17.74
2018-07-07T01:09:35.861Z,17.66
2018-07-07T01:10:35.850Z,17.68
2018-07-07T01:11:35.840Z,17.66
2018-07-07T01:12:35.829Z,17.63
2018-07-07T01:13:35.817Z,17.71
2018-07-07T01:14:35.811Z,17.70
2018-07-07T01:15:35.798Z,17.58
2018-07-07T01:16:35.788Z,17.60
2018-07-07T01:17:35.782Z,17.65
2018-07-07T01:18:35.767Z,17.66
2018-07-07T01:19:35.757Z,17.57
2018-07-07T01:20:35.748Z,17.63
2018-07-07T01:21:35.736Z,17.71
2018-07-07T01:22:35.730Z,17.71
2018-07-07T01:23:35.716Z,17.73
2018-07-07T01:24:35.708Z,17.74
2018-07-07T01:25:35.697Z,17.77
2018-07-07T01:26:35.685Z,17.86
2018-07-07T01:27:35.678Z,17.95
2018-07-07T01:28:35.665Z,17.95
2018-07-07T01:29:35.654Z,17.84
2018-07-07T01:30:35.644Z,17.83
2018-07-07T01:31:35.635Z,17.86
2018-07-07T01:32:35.625Z,17.89
2018-07-07T01:33:35.614Z,17.94
2018-07-07T01:34:35.605Z,17.96
2018-07-07T01:35:35.594Z,17.89
2018-07-07T01:36:35.587Z,17.86
2018-07-07T01:37:35.574Z,17.84
2018-07-07T01:38:35.566Z,17.83
2018-07-07T01:39:35.554Z,17.86
2018-07-07T01:40:35.545Z,17.84
2018-07-07T01:41:35.539Z,17.98
2018-07-07T01:42:35.524Z,18.01
2018-07-07T01:43:35.514Z,17.95
2018-07-07T01:44:35.504Z,17.98
2018-07-07T01:45:35.494Z,17.94
2018-07-07T01:46:35.484Z,18.02
2018-07-07T01:47:35.475Z,17.84
2018-07-07T01:48:35.473Z,17.96
2018-07-07T01:49:35.455Z,17.99
2018-07-07T01:50:35.444Z,17.98
2018-07-07T01:51:35.438Z,18.02
2018-07-07T01:52:35.425Z,18.13
2018-07-07T01:53:35.414Z,17.96
2018-07-07T01:54:35.404Z,17.99
2018-07-07T01:55:35.394Z,17.89
2018-07-07T01:56:35.385Z,17.92
2018-07-07T01:57:35.378Z,17.86
2018-07-07T01:58:35.365Z,17.89
2018-07-07T01:59:35.354Z,17.92
2018-07-07T02:00:35.400Z,17.84
2018-07-07T02:01:35.334Z,17.84
2018-07-07T02:02:35.324Z,17.94
2018-07-07T02:03:35.316Z,17.84
2018-07-07T02:04:35.307Z,17.96
2018-07-07T02:05:35.295Z,17.94
2018-07-07T02:06:35.286Z,17.91
2018-07-07T02:07:35.279Z,18.01
2018-07-07T02:08:35.267Z,17.87
2018-07-07T02:09:35.259Z,17.91
2018-07-07T02:10:35.245Z,17.86
2018-07-07T02:11:35.236Z,17.96
2018-07-07T02:12:35.230Z,17.87
2018-07-07T02:13:35.221Z,17.84
2018-07-07T02:14:35.209Z,17.77
2018-07-07T02:15:35.196Z,17.73
2018-07-07T02:16:35.185Z,17.68
2018-07-07T02:17:35.180Z,17.70
2018-07-07T02:18:35.165Z,17.86
2018-07-07T02:19:35.155Z,17.86
2018-07-07T02:20:35.145Z,17.91
2018-07-07T02:21:35.135Z,17.91
2018-07-07T02:22:35.126Z,17.86
2018-07-07T02:23:35.117Z,18.02
2018-07-07T02:24:35.105Z,17.99
2018-07-07T02:25:35.095Z,18.05
2018-07-07T02:26:35.085Z,18.11
2018-07-07T02:27:35.075Z,18.04
2018-07-07T02:28:35.065Z,18.09
2018-07-07T02:29:35.055Z,18.09
2018-07-07T02:30:35.048Z,18.11
2018-07-07T02:31:35.036Z,18.10
2018-07-07T02:32:35.026Z,18.14
2018-07-07T02:33:35.019Z,18.11
2018-07-07T02:34:35.008Z,18.13
2018-07-07T02:35:34.997Z,18.13
2018-07-07T02:36:34.988Z,18.05
2018-07-07T02:37:34.976Z,18.01
2018-07-07T02:38:34.966Z,17.94
2018-07-07T02:39:34.961Z,17.95
2018-07-07T02:40:34.951Z,17.89
2018-07-07T02:41:34.938Z,18.02
2018-07-07T02:42:34.927Z,18.05
2018-07-07T02:43:34.917Z,18.02
2018-07-07T02:44:34.908Z,17.98
2018-07-07T02:45:34.897Z,17.91
2018-07-07T02:46:34.888Z,17.94
2018-07-07T02:47:34.878Z,18.01
2018-07-07T02:48:34.869Z,17.96
2018-07-07T02:49:34.860Z,17.99
2018-07-07T02:50:34.849Z,17.99
2018-07-07T02:51:34.839Z,18.04
2018-07-07T02:52:34.830Z,17.98
2018-07-07T02:53:34.819Z,18.04
2018-07-07T02:54:34.816Z,18.02
2018-07-07T02:55:34.803Z,18.02
2018-07-07T02:56:34.790Z,17.99
2018-07-07T02:57:34.779Z,17.87
2018-07-07T02:58:34.769Z,17.91
2018-07-07T02:59:34.760Z,18.05
2018-07-07T03:00:34.751Z,18.01
2018-07-07T03:01:34.740Z,18.02
2018-07-07T03:02:34.730Z,18.07
2018-07-07T03:03:34.721Z,18.05
2018-07-07T03:04:34.711Z,18.10
2018-07-07T03:05:34.701Z,18.05
2018-07-07T03:06:34.691Z,18.02
2018-07-07T03:07:34.683Z,18.07
2018-07-07T03:08:34.671Z,18.13
2018-07-07T03:09:34.661Z,18.07
2018-07-07T03:10:34.652Z,17.94
2018-07-07T03:11:34.648Z,17.98
2018-07-07T03:12:34.632Z,17.98
2018-07-07T03:13:34.622Z,18.02
2018-07-07T03:14:34.612Z,18.04
2018-07-07T03:15:34.603Z,17.96
2018-07-07T03:16:34.598Z,17.92
2018-07-07T03:17:34.584Z,17.77
2018-07-07T03:18:34.577Z,17.74
2018-07-07T03:19:34.564Z,17.84
2018-07-07T03:20:34.558Z,17.68
2018-07-07T03:21:34.544Z,17.77
2018-07-07T03:22:34.534Z,17.73
2018-07-07T03:23:34.524Z,17.83
2018-07-07T03:24:34.514Z,17.94
2018-07-07T03:25:34.504Z,17.92
2018-07-07T03:26:34.494Z,17.91
2018-07-07T03:27:34.484Z,17.87
2018-07-07T03:28:34.477Z,17.84
2018-07-07T03:29:34.464Z,17.91
2018-07-07T03:30:34.455Z,17.89
2018-07-07T03:31:34.507Z,17.81
2018-07-07T03:32:34.435Z,17.84
2018-07-07T03:33:34.424Z,17.91
2018-07-07T03:34:34.414Z,17.94
2018-07-07T03:35:34.405Z,17.91
2018-07-07T03:36:34.395Z,17.94
2018-07-07T03:37:34.385Z,17.96
2018-07-07T03:38:34.375Z,17.96
2018-07-07T03:39:34.375Z,17.99
2018-07-07T03:40:34.356Z,18.01
2018-07-07T03:41:34.346Z,17.94
2018-07-07T03:42:34.336Z,18.02
2018-07-07T03:43:34.326Z,17.91
2018-07-07T03:44:34.319Z,17.95
2018-07-07T03:45:34.306Z,17.89
2018-07-07T03:46:34.296Z,17.92
2018-07-07T03:47:34.288Z,17.99
2018-07-07T03:48:34.277Z,18.01
2018-07-07T03:49:34.270Z,17.96
2018-07-07T03:50:34.256Z,17.96
2018-07-07T03:51:34.247Z,17.86
2018-07-07T03:52:34.239Z,17.74
2018-07-07T03:53:34.228Z,17.77
2018-07-07T03:54:34.217Z,17.73
2018-07-07T03:55:34.213Z,17.71
2018-07-07T03:56:34.197Z,17.66
2018-07-07T03:57:34.187Z,17.79
2018-07-07T03:58:34.178Z,17.70
2018-07-07T03:59:34.167Z,17.87
2018-07-07T04:00:34.158Z,17.83
2018-07-07T04:01:34.148Z,17.89
2018-07-07T04:02:34.137Z,17.89
2018-07-07T04:03:34.130Z,17.94
2018-07-07T04:04:34.118Z,18.01
2018-07-07T04:05:34.107Z,17.98
2018-07-07T04:06:34.097Z,17.99
2018-07-07T04:07:34.091Z,18.02
2018-07-07T04:08:34.077Z,17.89
2018-07-07T04:09:34.067Z,17.91
2018-07-07T04:10:34.058Z,18.02
2018-07-07T04:11:34.050Z,17.98
2018-07-07T04:12:34.039Z,17.89
2018-07-07T04:13:34.028Z,18.02
2018-07-07T04:14:34.018Z,17.99
2018-07-07T04:15:34.009Z,17.98
2018-07-07T04:16:33.999Z,18.02
2018-07-07T04:17:33.988Z,17.96
2018-07-07T04:18:33.978Z,17.91
2018-07-07T04:19:33.969Z,17.84
2018-07-07T04:20:33.959Z,17.91
2018-07-07T04:21:33.949Z,17.96
2018-07-07T04:22:33.939Z,17.98
2018-07-07T04:23:33.929Z,17.99
2018-07-07T04:24:33.923Z,17.92
2018-07-07T04:25:33.909Z,18.01
2018-07-07T04:26:33.899Z,18.04
2018-07-07T04:27:33.890Z,17.99
2018-07-07T04:28:33.880Z,18.07
2018-07-07T04:29:33.870Z,18.09
2018-07-07T04:30:33.874Z,18.07
2018-07-07T04:31:33.851Z,18.11
2018-07-07T04:32:34.041Z,18.07
2018-07-07T04:33:33.830Z,18.13
2018-07-07T04:34:33.822Z,18.14
2018-07-07T04:35:33.811Z,18.13
2018-07-07T04:36:33.804Z,18.17
2018-07-07T04:37:33.791Z,18.19
2018-07-07T04:38:33.781Z,18.14
2018-07-07T04:39:33.771Z,18.20
2018-07-07T04:40:33.763Z,18.21
2018-07-07T04:41:33.751Z,18.19
2018-07-07T04:42:33.741Z,18.21
2018-07-07T04:43:33.734Z,18.25
2018-07-07T04:44:33.722Z,18.13
2018-07-07T04:45:33.712Z,18.11
2018-07-07T04:46:33.703Z,18.19
2018-07-07T04:47:33.694Z,18.21
2018-07-07T04:48:33.684Z,18.21
2018-07-07T04:49:33.673Z,18.17
2018-07-07T04:50:33.664Z,18.14
2018-07-07T04:51:33.656Z,18.16
2018-07-07T04:52:33.648Z,18.20
2018-07-07T04:53:33.635Z,18.21
2018-07-07T04:54:33.626Z,18.20
2018-07-07T04:55:33.615Z,18.20
2018-07-07T04:56:33.606Z,18.11
2018-07-07T04:57:33.597Z,18.14
2018-07-07T04:58:33.588Z,18.19
2018-07-07T04:59:33.576Z,18.11
2018-07-07T05:00:33.567Z,18.11
2018-07-07T05:01:33.557Z,18.09
2018-07-07T05:02:33.548Z,18.14
2018-07-07T05:03:33.538Z,18.13
2018-07-07T05:04:33.533Z,18.09
2018-07-07T05:05:33.517Z,18.11
2018-07-07T05:06:33.508Z,18.05
2018-07-07T05:07:33.498Z,18.07
2018-07-07T05:08:33.489Z,18.01
2018-07-07T05:09:33.477Z,18.05
2018-07-07T05:10:33.468Z,18.09
2018-07-07T05:11:33.459Z,18.09
2018-07-07T05:12:33.448Z,18.05
2018-07-07T05:13:33.439Z,18.05
2018-07-07T05:14:33.430Z,18.09
2018-07-07T05:15:33.455Z,18.16
2018-07-07T05:16:33.409Z,18.10
2018-07-07T05:17:33.398Z,18.07
2018-07-07T05:18:33.389Z,18.10
2018-07-07T05:19:33.380Z,18.04
2018-07-07T05:20:33.369Z,18.01
2018-07-07T05:21:33.359Z,17.96
2018-07-07T05:22:33.351Z,18.02
2018-07-07T05:23:33.341Z,18.02
2018-07-07T05:24:33.330Z,17.99
2018-07-07T05:25:33.325Z,18.07
2018-07-07T05:26:33.514Z,18.10
2018-07-07T05:27:33.300Z,18.11
2018-07-07T05:28:33.291Z,18.11
2018-07-07T05:29:33.280Z,18.09
2018-07-07T05:30:33.270Z,18.10
2018-07-07T05:31:33.261Z,18.13
2018-07-07T05:32:33.251Z,18.05
2018-07-07T05:33:33.242Z,18.01
2018-07-07T05:34:33.233Z,17.96
2018-07-07T05:35:33.222Z,17.86
2018-07-07T05:36:33.212Z,17.79
2018-07-07T05:37:33.202Z,17.87
2018-07-07T05:38:33.341Z,17.92
2018-07-07T05:39:33.183Z,17.95
2018-07-07T05:40:33.173Z,17.84
2018-07-07T05:41:33.161Z,17.91
2018-07-07T05:42:33.152Z,17.81
2018-07-07T05:43:33.142Z,17.84
2018-07-07T05:44:33.135Z,17.94
2018-07-07T05:45:33.121Z,17.84
2018-07-07T05:46:33.117Z,17.87
2018-07-07T05:47:33.102Z,17.95
2018-07-07T05:48:33.093Z,17.89
2018-07-07T05:49:33.081Z,17.99
2018-07-07T05:50:33.222Z,17.92
2018-07-07T05:51:33.062Z,17.98
2018-07-07T05:52:33.058Z,17.87
2018-07-07T05:53:33.042Z,17.81
2018-07-07T05:54:33.034Z,17.94
2018-07-07T05:55:33.057Z,17.84
2018-07-07T05:56:33.015Z,17.73
2018-07-07T05:57:33.035Z,17.73
2018-07-07T05:58:33.027Z,17.71
2018-07-07T05:59:33.021Z,17.81
2018-07-07T06:00:32.986Z,17.74
2018-07-07T06:01:32.996Z,17.73
2018-07-07T06:02:32.988Z,17.81
2018-07-07T06:03:32.980Z,17.81
2018-07-07T06:04:32.970Z,17.84
2018-07-07T06:05:32.958Z,17.79
2018-07-07T06:06:32.952Z,17.83
2018-07-07T06:07:32.939Z,17.96
2018-07-07T06:08:32.927Z,17.86
2018-07-07T06:09:32.917Z,17.98
2018-07-07T06:10:32.910Z,18.01
2018-07-07T06:11:32.901Z,17.91
2018-07-07T06:12:32.889Z,17.98
2018-07-07T06:13:32.883Z,17.96
2018-07-07T06:14:32.910Z,17.89
2018-07-07T06:15:32.863Z,17.92
2018-07-07T06:16:32.849Z,17.81
2018-07-07T06:17:32.840Z,17.91
2018-07-07T06:18:32.822Z,17.89
2018-07-07T06:19:32.805Z,17.92
2018-07-07T06:20:33.003Z,17.83
2018-07-07T06:21:32.783Z,17.77
2018-07-07T06:22:32.785Z,17.84
2018-07-07T06:23:32.765Z,17.74
2018-07-07T06:24:32.751Z,17.79
2018-07-07T06:25:32.732Z,17.80
2018-07-07T06:26:32.765Z,17.83
2018-07-07T06:27:32.740Z,17.84
2018-07-07T06:28:32.728Z,17.79
2018-07-07T06:29:32.695Z,17.86
2018-07-07T06:30:32.698Z,17.86
2018-07-07T06:31:32.701Z,17.92
2018-07-07T06:32:32.885Z,17.81
2018-07-07T06:33:32.678Z,17.79
2018-07-07T06:34:32.668Z,17.79
2018-07-07T06:35:32.653Z,17.86
2018-07-07T06:36:32.645Z,17.91
2018-07-07T06:37:32.635Z,17.94
2018-07-07T06:38:32.622Z,17.91
2018-07-07T06:39:32.619Z,17.89
2018-07-07T06:40:32.607Z,17.89
2018-07-07T06:41:32.597Z,17.86
2018-07-07T06:42:32.584Z,17.91
2018-07-07T06:43:32.578Z,17.89
2018-07-07T06:44:32.552Z,17.89
2018-07-07T06:45:32.552Z,17.92
2018-07-07T06:46:32.536Z,17.87
2018-07-07T06:47:32.521Z,17.89
2018-07-07T06:48:32.519Z,17.92
2018-07-07T06:49:32.494Z,17.94
2018-07-07T06:50:32.486Z,17.83
2018-07-07T06:51:32.472Z,17.84
2018-07-07T06:52:32.455Z,17.84
2018-07-07T06:53:32.444Z,17.86
2018-07-07T06:54:32.434Z,17.87
2018-07-07T06:55:32.425Z,17.94
2018-07-07T06:56:32.415Z,17.86
2018-07-07T06:57:32.409Z,17.86
2018-07-07T06:58:32.395Z,17.84
2018-07-07T06:59:32.399Z,17.79
2018-07-07T07:00:32.376Z,17.79
2018-07-07T07:01:32.366Z,17.73
2018-07-07T07:02:32.365Z,17.68
2018-07-07T07:03:32.375Z,17.60
2018-07-07T07:04:32.344Z,17.66
2018-07-07T07:05:32.326Z,17.63
2018-07-07T07:06:32.327Z,17.51
2018-07-07T07:07:32.307Z,17.58
2018-07-07T07:08:32.454Z,17.54
2018-07-07T07:09:32.284Z,17.55
2018-07-07T07:10:32.275Z,17.53
2018-07-07T07:11:32.265Z,17.43
2018-07-07T07:12:32.255Z,17.54
2018-07-07T07:13:32.245Z,17.51
2018-07-07T07:14:32.235Z,17.47
2018-07-07T07:15:32.224Z,17.47
2018-07-07T07:16:32.215Z,17.47
2018-07-07T07:17:32.206Z,17.47
2018-07-07T07:18:32.194Z,17.42
2018-07-07T07:19:32.184Z,17.45
2018-07-07T07:20:32.174Z,17.45
2018-07-07T07:21:32.166Z,17.40
2018-07-07T07:22:32.154Z,17.42
2018-07-07T07:23:32.143Z,17.33
2018-07-07T07:24:32.133Z,17.35
2018-07-07T07:25:32.122Z,17.33
2018-07-07T07:26:32.113Z,17.33
2018-07-07T07:27:32.104Z,17.40
2018-07-07T07:28:32.093Z,17.40
2018-07-07T07:29:32.084Z,17.40
2018-07-07T07:30:32.072Z,17.45
2018-07-07T07:31:32.063Z,17.40
2018-07-07T07:32:32.052Z,17.45
2018-07-07T07:33:32.041Z,17.43
2018-07-07T07:34:32.034Z,17.51
2018-07-07T07:35:32.021Z,17.49
2018-07-07T07:36:32.012Z,17.51
2018-07-07T07:37:32.004Z,17.53
2018-07-07T07:38:31.990Z,17.49
2018-07-07T07:39:31.980Z,17.47
2018-07-07T07:40:31.970Z,17.40
2018-07-07T07:41:31.959Z,17.45
2018-07-07T07:42:31.949Z,17.40
2018-07-07T07:43:31.939Z,17.35
2018-07-07T07:44:31.930Z,17.40
2018-07-07T07:45:31.920Z,17.42
2018-07-07T07:46:31.908Z,17.35
2018-07-07T07:47:31.899Z,17.36
2018-07-07T07:48:31.889Z,17.36
2018-07-07T07:49:31.877Z,17.35
2018-07-07T07:50:31.869Z,17.33
2018-07-07T07:51:31.857Z,17.35
2018-07-07T07:52:31.850Z,17.35
2018-07-07T07:53:31.837Z,17.38
2018-07-07T07:54:31.827Z,17.40
2018-07-07T07:55:31.816Z,17.43
2018-07-07T07:56:31.807Z,17.40
2018-07-07T07:57:31.804Z,17.32
2018-07-07T07:58:31.787Z,17.20
2018-07-07T07:59:31.777Z,17.17
2018-07-07T08:00:31.766Z,17.20
2018-07-07T08:01:31.755Z,17.15
2018-07-07T08:02:31.745Z,17.02
2018-07-07T08:03:31.741Z,17.10
2018-07-07T08:04:31.724Z,17.10
2018-07-07T08:05:31.713Z,17.07
2018-07-07T08:06:31.703Z,17.14
2018-07-07T08:07:31.693Z,17.20
2018-07-07T08:08:31.690Z,17.22
2018-07-07T08:09:31.672Z,17.27
2018-07-07T08:10:31.661Z,17.15
2018-07-07T08:11:31.651Z,17.21
2018-07-07T08:12:31.641Z,17.15
2018-07-07T08:13:31.629Z,17.18
2018-07-07T08:14:31.620Z,17.24
2018-07-07T08:15:31.610Z,17.18
2018-07-07T08:16:31.600Z,17.20
2018-07-07T08:17:31.589Z,17.22
2018-07-07T08:18:31.577Z,17.28
2018-07-07T08:19:31.568Z,17.20
2018-07-07T08:20:31.558Z,17.22
2018-07-07T08:21:31.546Z,17.24
2018-07-07T08:22:31.581Z,17.22
2018-07-07T08:23:31.527Z,17.12
2018-07-07T08:24:31.516Z,17.10
2018-07-07T08:25:31.505Z,16.95
2018-07-07T08:26:31.495Z,16.98
2018-07-07T08:27:31.484Z,16.92
2018-07-07T08:28:31.524Z,16.91
2018-07-07T08:29:31.462Z,16.90
2018-07-07T08:30:31.454Z,16.82
2018-07-07T08:31:31.441Z,16.95
2018-07-07T08:32:31.431Z,16.87
2018-07-07T08:33:31.420Z,16.88
2018-07-07T08:34:31.463Z,16.80
2018-07-07T08:35:31.400Z,16.80
2018-07-07T08:36:31.431Z,16.80
2018-07-07T08:37:31.382Z,16.75
2018-07-07T08:38:31.367Z,16.75
2018-07-07T08:39:31.362Z,16.69
2018-07-07T08:40:31.346Z,16.66
2018-07-07T08:41:31.335Z,16.65
2018-07-07T08:42:31.325Z,16.59
2018-07-07T08:43:31.314Z,16.51
2018-07-07T08:44:31.304Z,16.57
2018-07-07T08:45:31.293Z,16.60
2018-07-07T08:46:31.283Z,16.59
2018-07-07T08:47:31.272Z,16.60
2018-07-07T08:48:31.260Z,16.55
2018-07-07T08:49:31.250Z,16.63
2018-07-07T08:50:31.240Z,16.62
2018-07-07T08:51:31.229Z,16.60
2018-07-07T08:52:31.218Z,16.47
2018-07-07T08:53:31.207Z,16.52
2018-07-07T08:54:31.196Z,16.59
2018-07-07T08:55:31.186Z,16.63
2018-07-07T08:56:31.175Z,16.63
2018-07-07T08:57:31.164Z,16.69
2018-07-07T08:58:31.153Z,16.70
2018-07-07T08:59:31.142Z,16.62
2018-07-07T09:00:31.132Z,16.80
2018-07-07T09:01:31.121Z,16.73
2018-07-07T09:02:31.263Z,16.67
2018-07-07T09:03:31.100Z,16.55
2018-07-07T09:04:31.092Z,16.59
2018-07-07T09:05:31.077Z,16.55
2018-07-07T09:06:31.068Z,16.60
2018-07-07T09:07:31.057Z,16.50
2018-07-07T09:08:31.246Z,16.59
2018-07-07T09:09:31.035Z,16.54
2018-07-07T09:10:31.024Z,16.63
2018-07-07T09:11:31.014Z,16.63
2018-07-07T09:12:31.006Z,16.60
2018-07-07T09:13:30.999Z,16.60
2018-07-07T09:14:30.982Z,16.60
2018-07-07T09:15:30.970Z,16.65
2018-07-07T09:16:30.960Z,16.60
2018-07-07T09:17:30.948Z,16.66
2018-07-07T09:18:30.950Z,16.67
2018-07-07T09:19:30.927Z,16.78
2018-07-07T09:20:30.917Z,16.62
2018-07-07T09:21:30.905Z,16.67
2018-07-07T09:22:30.895Z,16.73
2018-07-07T09:23:30.883Z,16.67
2018-07-07T09:24:30.911Z,16.54
2018-07-07T09:25:30.865Z,16.55
2018-07-07T09:26:30.851Z,16.59
2018-07-07T09:27:30.841Z,16.62
2018-07-07T09:28:30.830Z,16.55
2018-07-07T09:29:30.819Z,16.60
2018-07-07T09:30:30.808Z,16.70
2018-07-07T09:31:30.798Z,16.66
2018-07-07T09:32:30.788Z,16.57
2018-07-07T09:33:30.776Z,16.57
2018-07-07T09:34:30.768Z,16.60
2018-07-07T09:35:30.755Z,16.47
2018-07-07T09:36:30.744Z,16.50
2018-07-07T09:37:30.733Z,16.66
2018-07-07T09:38:30.724Z,16.59
2018-07-07T09:39:30.712Z,16.57
2018-07-07T09:40:30.704Z,16.67
2018-07-07T09:41:30.690Z,16.65
2018-07-07T09:42:30.680Z,16.77
2018-07-07T09:43:30.669Z,16.69
2018-07-07T09:44:30.659Z,16.73
2018-07-07T09:45:30.647Z,16.78
2018-07-07T09:46:30.640Z,16.78
2018-07-07T09:47:30.626Z,16.63
2018-07-07T09:48:30.615Z,16.75
2018-07-07T09:49:30.606Z,16.72
2018-07-07T09:50:30.593Z,16.72
2018-07-07T09:51:30.583Z,16.78
2018-07-07T09:52:30.577Z,16.75
2018-07-07T09:53:30.561Z,16.80
2018-07-07T09:54:30.550Z,16.82
2018-07-07T09:55:30.540Z,16.80
2018-07-07T09:56:30.531Z,16.75
2018-07-07T09:57:30.518Z,16.70
2018-07-07T09:58:30.507Z,16.62
2018-07-07T09:59:30.499Z,16.63
2018-07-07T10:00:30.486Z,16.67
2018-07-07T10:01:30.478Z,16.70
2018-07-07T10:02:30.464Z,16.66
2018-07-07T10:03:30.454Z,16.63
2018-07-07T10:04:30.446Z,16.63
2018-07-07T10:05:30.432Z,16.63
2018-07-07T10:06:30.421Z,16.60
2018-07-07T10:07:30.411Z,16.60
2018-07-07T10:08:30.551Z,16.57
2018-07-07T10:09:30.388Z,16.55
2018-07-07T10:10:30.383Z,16.44
2018-07-07T10:11:30.367Z,16.50
2018-07-07T10:12:30.356Z,16.59
2018-07-07T10:13:30.350Z,16.54
2018-07-07T10:14:30.339Z,16.60
2018-07-07T10:15:30.325Z,16.66
2018-07-07T10:16:30.314Z,16.67
2018-07-07T10:17:30.305Z,16.72
2018-07-07T10:18:30.291Z,16.78
2018-07-07T10:19:30.281Z,16.75
2018-07-07T10:20:30.272Z,16.82
2018-07-07T10:21:30.258Z,16.80
2018-07-07T10:22:30.249Z,16.78
2018-07-07T10:23:30.237Z,16.84
2018-07-07T10:24:30.227Z,16.81
2018-07-07T10:25:30.215Z,16.88
2018-07-07T10:26:30.206Z,16.88
2018-07-07T10:27:30.195Z,16.80
2018-07-07T10:28:30.186Z,16.67
2018-07-07T10:29:30.173Z,16.67
2018-07-07T10:30:30.162Z,16.65
2018-07-07T10:31:30.154Z,16.59
2018-07-07T10:32:30.141Z,16.60
2018-07-07T10:33:30.130Z,16.67
2018-07-07T10:34:30.119Z,16.69
2018-07-07T10:35:30.110Z,16.59
2018-07-07T10:36:30.099Z,16.69
2018-07-07T10:37:30.110Z,16.67
2018-07-07T10:38:30.227Z,16.66
2018-07-07T10:39:30.067Z,16.77
2018-07-07T10:40:30.057Z,16.73
2018-07-07T10:41:30.047Z,16.69
2018-07-07T10:42:30.036Z,16.70
2018-07-07T10:43:30.025Z,16.70
2018-07-07T10:44:30.214Z,16.80
2018-07-07T10:45:30.038Z,16.81
2018-07-07T10:46:29.992Z,16.82
2018-07-07T10:47:30.029Z,16.85
2018-07-07T10:48:29.974Z,16.88
2018-07-07T10:49:29.961Z,16.92
2018-07-07T10:50:29.951Z,16.96
2018-07-07T10:51:29.940Z,16.98
2018-07-07T10:52:29.930Z,17.05
2018-07-07T10:53:29.919Z,17.02
2018-07-07T10:54:29.909Z,17.15
2018-07-07T10:55:29.905Z,17.24
2018-07-07T10:56:29.889Z,17.25
2018-07-07T10:57:29.877Z,17.14
2018-07-07T10:58:29.867Z,17.18
2018-07-07T10:59:29.858Z,17.21
2018-07-07T11:00:29.847Z,17.30
2018-07-07T11:01:29.836Z,17.27
2018-07-07T11:02:29.828Z,17.28
2018-07-07T11:03:29.816Z,17.20
2018-07-07T11:04:29.807Z,17.18
2018-07-07T11:05:29.795Z,17.17
2018-07-07T11:06:29.786Z,17.22
2018-07-07T11:07:29.776Z,17.20
2018-07-07T11:08:29.764Z,17.17
2018-07-07T11:09:29.757Z,17.17
2018-07-07T11:10:29.743Z,17.17
2018-07-07T11:11:29.733Z,17.14
2018-07-07T11:12:29.723Z,17.24
2018-07-07T11:13:29.712Z,17.24
2018-07-07T11:14:29.702Z,17.20
2018-07-07T11:15:29.725Z,17.30
2018-07-07T11:16:29.685Z,17.36
2018-07-07T11:17:29.673Z,17.42
2018-07-07T11:18:29.662Z,17.42
2018-07-07T11:19:29.652Z,17.51
2018-07-07T11:20:29.642Z,17.57
2018-07-07T11:21:29.634Z,17.71
2018-07-07T11:22:29.622Z,17.66
2018-07-07T11:23:29.612Z,17.68
2018-07-07T11:24:29.601Z,17.81
2018-07-07T11:25:29.591Z,17.86
2018-07-07T11:26:29.581Z,17.91
2018-07-07T11:27:29.574Z,17.91
2018-07-07T11:28:29.563Z,17.89
2018-07-07T11:29:29.557Z,18.02
2018-07-07T11:30:29.542Z,18.05
2018-07-07T11:31:29.533Z,18.04
2018-07-07T11:32:29.523Z,18.02
2018-07-07T11:33:29.512Z,18.04
2018-07-07T11:34:29.502Z,18.02
2018-07-07T11:35:29.493Z,18.09
2018-07-07T11:36:29.537Z,18.09
2018-07-07T11:37:29.478Z,18.16
2018-07-07T11:38:29.463Z,18.20
2018-07-07T11:39:29.454Z,18.17
2018-07-07T11:40:29.444Z,18.34
2018-07-07T11:41:29.436Z,18.31
2018-07-07T11:42:29.426Z,18.41
2018-07-07T11:43:29.417Z,18.49
2018-07-07T11:44:29.410Z,18.41
2018-07-07T11:45:29.397Z,18.39
2018-07-07T11:46:29.386Z,18.53
2018-07-07T11:47:29.386Z,18.56
2018-07-07T11:48:29.378Z,18.65
2018-07-07T11:49:29.367Z,18.64
2018-07-07T11:50:29.380Z,18.66
2018-07-07T11:51:29.348Z,18.79
2018-07-07T11:52:29.339Z,18.90
2018-07-07T11:53:29.329Z,18.76
2018-07-07T11:54:29.320Z,18.86
2018-07-07T11:55:29.312Z,18.93
2018-07-07T11:56:29.302Z,18.82
2018-07-07T11:57:29.295Z,18.78
2018-07-07T11:58:29.284Z,18.84
2018-07-07T11:59:29.275Z,18.89
2018-07-07T12:00:29.272Z,18.89
2018-07-07T12:01:29.257Z,18.91
2018-07-07T12:02:29.247Z,19.07
2018-07-07T12:03:29.239Z,19.31
2018-07-07T12:04:29.281Z,19.35
2018-07-07T12:05:29.220Z,19.50
2018-07-07T12:06:29.211Z,19.67
2018-07-07T12:07:29.203Z,19.80
2018-07-07T12:08:29.467Z,19.90
2018-07-07T12:09:29.185Z,19.86
2018-07-07T12:10:29.188Z,20.02
2018-07-07T12:11:29.262Z,20.13
2018-07-07T12:12:29.164Z,20.15
2018-07-07T12:13:29.151Z,20.17
2018-07-07T12:14:29.144Z,20.22
2018-07-07T12:15:29.135Z,20.19
2018-07-07T12:16:29.127Z,20.37
2018-07-07T12:17:29.170Z,20.46
2018-07-07T12:18:29.109Z,20.56
2018-07-07T12:19:29.103Z,20.54
2018-07-07T12:20:29.094Z,20.63
2018-07-07T12:21:29.085Z,20.51
2018-07-07T12:22:29.077Z,20.37
2018-07-07T12:23:29.070Z,20.61
2018-07-07T12:24:29.061Z,20.53
2018-07-07T12:25:29.056Z,20.66
2018-07-07T12:26:29.046Z,20.78
2018-07-07T12:27:29.038Z,20.78
2018-07-07T12:28:29.030Z,20.78
2018-07-07T12:29:29.021Z,20.83
2018-07-07T12:30:29.015Z,20.78
2018-07-07T12:31:29.092Z,20.90
2018-07-07T12:32:28.999Z,20.91
2018-07-07T12:33:28.991Z,20.96
2018-07-07T12:34:28.984Z,21.09
2018-07-07T12:35:28.976Z,20.97
2018-07-07T12:36:28.968Z,21.08
2018-07-07T12:37:28.961Z,21.15
2018-07-07T12:38:28.952Z,21.11
2018-07-07T12:39:28.945Z,21.18
2018-07-07T12:40:28.970Z,21.18
2018-07-07T12:41:28.933Z,21.30
2018-07-07T12:42:28.922Z,21.33
2018-07-07T12:43:28.944Z,21.21
2018-07-07T12:44:28.908Z,21.31
2018-07-07T12:45:28.899Z,21.16
2018-07-07T12:46:28.891Z,21.06
2018-07-07T12:47:28.887Z,21.03
2018-07-07T12:48:28.877Z,21.28
2018-07-07T12:49:28.860Z,21.19
2018-07-07T12:50:28.852Z,21.16
2018-07-07T12:51:28.846Z,21.06
2018-07-07T12:52:28.841Z,21.09